SCC: Daytona Test practice one times

Pos Num Class Team Time Gap To 1st Speed --- --- ----- ---------------------------------------- ---------- ------- ------- ------- 1. 54 GS Hyper Sport 2:03.741...

Pos Num Class Team                                           Time     Gap  To 1st   Speed
--- --- ----- ---------------------------------------- ---------- ------- ------- -------
 1.  54 GS    Hyper Sport                                2:03.741                 103.571
 2.   4 GS    Blackforest Motorsports                    2:04.062   0.321   0.321 103.303
 3. 154 GS    Jim Click Racing                           2:04.294   0.232   0.553 103.110
 4.  25 GS    Fiorano/ C-MAX Racing                      2:04.479   0.185   0.738 102.957
 5.  59 GS    Rehagen Racing                             2:04.825   0.346   1.084 102.672
 6.  55 GS    Hyper Sport                                2:04.949   0.124   1.208 102.570
 7.   6 GS    Blackforest Motorsports                    2:05.032   0.083   1.291 102.502
 8.  10 GS    Spirit of Daytona Racing                   2:05.123   0.091   1.382 102.427
 9.  71 GS    Synergy Racing                             2:05.862   0.739   2.121 101.826
10.  99 GS    Automatic Racing                           2:06.145   0.283   2.404 101.597
11.  09 GS    Automatic Racing                           2:06.447   0.302   2.706 101.355
12.  26 GS    Fiorano/ C-MAX Racing                      2:06.448   0.001   2.707 101.354
13.  44 GS    ASC Motorsports                            2:06.693   0.245   2.952 101.158
14.  72 GS    BGB Motorsports                            2:06.734   0.041   2.993 101.125
15.   5 GS    Blackforest Motorsports                    2:07.299   0.565   3.558 100.676
16.  88 GS    LNS Motorsport                             2:07.306   0.007   3.565 100.671
17.   3 GS    Blackforest Motorsports                    2:07.419   0.113   3.678 100.582
18.  60 GS    Horsepower Ranch                           2:07.672   0.253   3.931 100.382
19.  28 GS    Fall-Line Motorsports                      2:07.725   0.053   3.984 100.341
20.  83 GS    BGB Motorsports                            2:07.896   0.171   4.155 100.206
21.  87 GS    LNS Motorsport                             2:08.418   0.522   4.677  99.799
22.  90 GS    Automatic Racing                           2:08.434   0.016   4.693  99.787
23.  07 GS    Cardiosport Racing                         2:08.640   0.206   4.899  99.627
24.  52 GS    Rehagen Racing                             2:08.848   0.208   5.107  99.466
25.  61 GS    Horsepower Ranch                           2:09.069   0.221   5.328  99.296
26.  46 GS    Fall-Line Motorsports                      2:09.206   0.137   5.465  99.190
27.  89 GS    LNS Motorsport                             2:09.838   0.632   6.097  98.708
28.  43 GS    ASC Motorsports                            2:11.627   1.789   7.886  97.366
29.  86 ST    Classic BMW - Plano                        2:12.731   1.104   8.990  96.556
30.  91 GS    Automatic Racing                           2:12.752   0.021   9.011  96.541
31.  76 ST    Kensai Racing                              2:13.207   0.455   9.466  96.211
32.  75 ST    Kensai Racing                              2:13.288   0.081   9.547  96.153
33.  79 GS    Kinetic Motorsports                        2:13.365   0.077   9.624  96.097
34. 125 ST    Fountain Motorsports                       2:14.499   1.134  10.758  95.287
35.  50 GS    Eastern Competition Promotorsports         2:14.571   0.072  10.830  95.236
36.  24 ST    V-Pack Motorsport                          2:14.620   0.049  10.879  95.201
37.  62 ST    Roar Racing                                2:14.890   0.270  11.149  95.011
38. 121 ST    GT Racing                                  2:15.583   0.693  11.842  94.525
39. 151 ST    Competition Marketing Motorsports          2:16.389   0.806  12.648  93.967
40.  63 ST    Roar Racing                                2:16.623   0.234  12.882  93.806
41.  02 ST    Blackforest Motorsports                    2:16.928   0.305  13.187  93.597
42.  74 ST    Kensai Racing                              2:17.458   0.530  13.717  93.236
43.  48 ST    Team Cobalt California                     2:17.800   0.342  14.059  93.004
44.  17 GS    Team Centurion                             2:18.119   0.319  14.378  92.790
45.   9 GS    Spirit of Daytona Racing                   2:18.472   0.353  14.731  92.553
46.  98 ST    Team Cobalt California                     2:19.104   0.632  15.363  92.133
47. 131 ST    GT Racing                                  2:19.251   0.147  15.510  92.035
48.  78 GS    Kinetic Motorsports                        2:19.873   0.622  16.132  91.626
49.  34 ST    Whatever Racing                            2:20.459   0.586  16.718  91.244
50. 138 ST    GS Motorsport                              2:43.426  22.967  39.685  78.421
51.  80 GS    Kinetic Motorsports                        4:00.637 1:17.21 1:56.89  53.259
52. 126 ST    Fountain Motorsports                       9:04.968 5:04.33 7:01.22  23.517
53.   2 GS    Blackforest Motorsports                     No Time
54.  11 GS    Southwest Racers Group                      No Time
55.  18 GS    Race Prep Motorsports                       No Time
56.  38 GS    BGB Motorsports                             No Time
57.  39 GS    TRG                                         No Time
58.  40 GS    TRG                                         No Time
59.  41 GS    TRG                                         No Time
60.  42 GS    TRG                                         No Time
61.  12 ST    Southwest Racers Group                      No Time
62.  14 ST    MY Motorsports                              No Time
63.  23 ST    MY Motorsports                              No Time
64.  31 ST    i-MOTO Racing                               No Time
65.  32 ST    i-MOTO Racing                               No Time
66.  56 ST    BSI Racing                                  No Time
67.  58 ST    BSI Racing                                  No Time
68.  85 ST    Classic BMW - Plano                         No Time
69. 118 ST    Rotary Power Motorsports                    No Time

Be part of something big

Write a comment
Show comments
About this article
Series Grand-Am
Drivers Jim Click
Teams Kinetic Motorsports , Rehagen Racing , Automatic Racing , Fall-Line Motorsports